Skip to main content.

Nearby METAR Reports

 

KJYR - York, Nebraska, USA
Distance from station: NW 27mi, 43km
Updated: Thu, 18-Oct-2018 5:15am CDT
Clear
Clear
 Wind from SW
Wind: SW 8 mph , 13 km/h
Temperature: 41°F , 5°C
Wind Chill: 36°F , 2°C
Dew Point: 37°F , 3°C
Humidity: 87%
Barometer: 30.42 inHg , 1030.1 hPa
Clouds: Clear
Visibility: 10 miles , 16 km
2018/10/18 10:15 KJYR 181015Z AUTO 23007KT 10SM CLR 05/03 A3042 RMK AO2
KLNK - Lincoln, Nebraska, USA
Distance from station: ENE 27mi, 44km
Updated: Thu, 18-Oct-2018 4:54am CDT
Clear
Clear
 Wind from SSE
Wind: SSE 5 mph , 7 km/h
Temperature: 43°F , 6°C
Wind Chill: 40°F , 4°C
Dew Point: 37°F , 3°C
Humidity: 81%
Barometer: 30.43 inHg , 1030.5 hPa
Clouds: Clear
Visibility: 10 miles , 16 km
2018/10/18 09:54 KLNK 180954Z 16004KT 10SM R36/6000VP6000FT CLR 06/03 A3043 RMK AO2 SLP306 T00610033
 
KBIE - Beatrice Municip, Nebraska, USA
Distance from station: SE 36mi, 58km
Updated: Thu, 18-Oct-2018 5:15am CDT
Clear
Clear
 Wind from calm
Wind: Calm
Temperature: 43°F , 6°C
Dew Point: 41°F , 5°C
Humidity: 93%
Barometer: 30.44 inHg , 1030.8 hPa
Clouds: Clear
Visibility: 10 miles , 16 km
2018/10/18 10:15 KBIE 181015Z AUTO 00000KT 10SM CLR 06/05 A3044 RMK AO2 T00620048
KHJH - Hebron Muni, Nebraska, USA
Distance from station: SSW 40mi, 64km
Updated: Thu, 18-Oct-2018 5:15am CDT
Clear
Clear
 Wind from calm
Wind: Calm
Temperature: 43°F , 6°C
Dew Point: 37°F , 3°C
Humidity: 81%
Barometer: 30.44 inHg , 1030.8 hPa
Clouds: Clear
Visibility: 10 miles , 16 km
2018/10/18 10:15 KHJH 181015Z AUTO 00000KT 10SM CLR 06/03 A3044 RMK AO2 T00600033
 
KAUH - Aurora, Nebraska, USA
Distance from station: WNW 44mi, 70km
Updated: Thu, 18-Oct-2018 5:15am CDT
Clear
Clear
 Wind from SW
Wind: SW 6 mph , 9 km/h
Temperature: 43°F , 6°C
Wind Chill: 39°F , 4°C
Dew Point: 37°F , 3°C
Humidity: 81%
Barometer: 30.41 inHg , 1029.8 hPa
Clouds: Clear
Visibility: 10 miles , 16 km
2018/10/18 10:15 KAUH 181015Z AUTO 22005KT 10SM CLR 06/03 A3041 RMK AO2 T00640030
KAHQ - Wahoo, Nebraska, USA
Distance from station: NE 51mi, 82km
Updated: Thu, 18-Oct-2018 5:15am CDT
Clear
Clear
 Wind from SE
Wind: SE 3 mph , 6 km/h
Temperature: 39°F , 4°C
Dew Point: 37°F , 3°C
Humidity: 93%
Barometer: 30.42 inHg , 1030.1 hPa
Clouds: Clear
Visibility: 7 miles , 11 km
2018/10/18 10:15 KAHQ 181015Z AUTO 14003KT 7SM CLR 04/03 A3042 RMK AO2 T00360033
 
KOLU - Columbus Muni, Nebraska, USA
Distance from station: N 55mi, 88km
Updated: Thu, 18-Oct-2018 4:56am CDT
Clear
Clear
 Wind from calm
Wind: Calm
Temperature: 32°F , 0°C
Dew Point: 30°F , -1°C
Humidity: 93%
Barometer: 30.41 inHg , 1029.8 hPa
Clouds: Clear
Visibility: 10 miles , 16 km
2018/10/18 09:56 KOLU 180956Z AUTO 00000KT 10SM CLR 00/M01 A3041 RMK AO2 SLP305 T00001011 FZRANO
KGRI - Grand Island, Nebraska, USA
Distance from station: WNW 61mi, 99km
Updated: Thu, 18-Oct-2018 4:53am CDT
Clear
Clear
 Wind from S
Wind: S 8 mph , 13 km/h
Temperature: 45°F , 7°C
Wind Chill: 41°F , 5°C
Dew Point: 37°F , 3°C
Humidity: 76%
Barometer: 30.41 inHg , 1029.8 hPa
Clouds: Clear
Visibility: 10 miles , 16 km
2018/10/18 09:53 KGRI 180953Z AUTO 19007KT 10SM CLR 07/03 A3041 RMK AO2 SLP300 T00720028
 
KHSI - Hastings, Nebraska, USA
Distance from station: W 64mi, 103km
Updated: Thu, 18-Oct-2018 4:53am CDT
Clear
Clear
 Wind from S
Wind: S 6 mph , 9 km/h
Temperature: 46°F , 8°C
Wind Chill: 43°F , 6°C
Dew Point: 37°F , 3°C
Humidity: 71%
Barometer: 30.42 inHg , 1030.1 hPa
Clouds: Clear
Visibility: 9 miles , 14 km
2018/10/18 09:53 KHSI 180953Z AUTO 19005KT 9SM CLR 08/03 A3042 RMK AO2 SLP299 T00780028
KFET - Fremont Muni Arp, Nebraska, USA
Distance from station: NNE 66mi, 106km
Updated: Thu, 18-Oct-2018 5:15am CDT
Clear
Clear
 Wind from calm
Wind: Calm
Temperature: 41°F , 5°C
Dew Point: 39°F , 4°C
Humidity: 93%
Barometer: 30.42 inHg , 1030.1 hPa
Clouds: Clear
Visibility: 10 miles , 16 km
2018/10/18 10:15 KFET 181015Z AUTO 00000KT 10SM CLR 05/04 A3042 RMK AO2 T00540036
 
KMLE - Omaha/Millard, Nebraska, USA
Distance from station: NE 69mi, 110km
Updated: Thu, 18-Oct-2018 5:15am CDT
Clear
Clear
 Wind from calm
Wind: Calm
Temperature: 41°F , 5°C
Dew Point: 39°F , 4°C
Humidity: 93%
Barometer: 30.43 inHg , 1030.5 hPa
Clouds: Clear
Visibility: 10 miles , 16 km
2018/10/18 10:15 KMLE 181015Z AUTO 00000KT 10SM CLR 05/04 A3043 RMK AO2 T00470041
KPMV - Plattsmouth Muni, Nebraska, USA
Distance from station: ENE 71mi, 114km
Updated: Thu, 18-Oct-2018 5:15am CDT
Clear
Clear
 Wind from SSE
Wind: SSE 6 mph , 9 km/h
Temperature: 45°F , 7°C
Wind Chill: 42°F , 6°C
Dew Point: 41°F , 5°C
Humidity: 87%
Barometer: 30.43 inHg , 1030.5 hPa
Clouds: Clear
Visibility: 10 miles , 16 km
2018/10/18 10:15 KPMV 181015Z AUTO 15005KT 10SM CLR 07/05 A3043 RMK AO2 T00650051
 
KAFK - Nebraska City, Nebraska, USA
Distance from station: E 72mi, 116km
Updated: Thu, 18-Oct-2018 5:15am CDT
Clear
Clear
 Wind from S
Wind: S 8 mph , 13 km/h
Temperature: 41°F , 5°C
Wind Chill: 36°F , 2°C
Dew Point: 37°F , 3°C
Humidity: 87%
Barometer: 30.44 inHg , 1030.8 hPa
Clouds: Clear
Visibility: 10 miles , 16 km
2018/10/18 10:15 KAFK 181015Z AUTO 18007KT 10SM CLR 05/03 A3044 RMK AO2 T00530030
KOFF - Offutt Afb/Belle, Nebraska, USA
Distance from station: ENE 75mi, 121km
Updated: Thu, 18-Oct-2018 4:56am CDT
Clear
Clear
 Wind from E
Wind: E 3 mph , 6 km/h
Temperature: 41°F , 5°C
Dew Point: 41°F , 5°C
Humidity: 100%
Barometer: 30.42 inHg , 1030.1 hPa
Clouds: Clear
Visibility: 10 miles , 16 km
2018/10/18 09:56 KOFF 180956Z AUTO 10003KT 10SM CLR 05/05 A3042 RMK AO2 SLP308 T00510050 $
 
KBTA - Blair Muni, Nebraska, USA
Distance from station: NE 78mi, 125km
Updated: Thu, 18-Oct-2018 5:15am CDT
Clear
Clear
 Wind from S
Wind: S 6 mph , 9 km/h
Temperature: 43°F , 6°C
Wind Chill: 39°F , 4°C
Dew Point: 39°F , 4°C
Humidity: 87%
Barometer: 30.41 inHg , 1029.8 hPa
Clouds: Clear
Visibility: 10 miles , 16 km
2018/10/18 10:15 KBTA 181015Z AUTO 17005KT 10SM CLR 06/04 A3041 RMK AO2 T00630041
KCNK - Concordia, Kansas, USA
Distance from station: SSW 80mi, 129km
Updated: Thu, 18-Oct-2018 4:55am CDT
Clear
Clear
 Wind from SSW
Wind: SSW 10 mph , 17 km/h
Temperature: 48°F , 9°C
Wind Chill: 44°F , 7°C
Dew Point: 39°F , 4°C
Humidity: 71%
Barometer: 30.43 inHg , 1030.5 hPa
Clouds: Clear
Visibility: 10 miles , 16 km
2018/10/18 09:55 KCNK 180955Z AUTO 20009KT 10SM CLR 09/04 A3043 RMK AO2 SLP301 T00940044 $
 
KOMA - Omaha/Eppley, Nebraska, USA
Distance from station: NE 82mi, 133km
Updated: Thu, 18-Oct-2018 4:52am CDT
Clear
Clear
 Wind from SSE
Wind: SSE 7 mph , 11 km/h
Temperature: 43°F , 6°C
Wind Chill: 39°F , 4°C
Dew Point: 37°F , 3°C
Humidity: 81%
Barometer: 30.43 inHg , 1030.5 hPa
Clouds: Clear
Visibility: 10 miles , 16 km
2018/10/18 09:52 KOMA 180952Z 16006KT 10SM CLR 06/03 A3043 RMK AO2 SLP306 T00610028
KBVN - Albion Muni, Nebraska, USA
Distance from station: NNW 86mi, 138km
Updated: Thu, 18-Oct-2018 5:15am CDT
Clear
Clear
 Wind from calm
Wind: Calm
Temperature: 46°F , 8°C
Dew Point: 37°F , 3°C
Humidity: 71%
Barometer: 30.39 inHg , 1029.1 hPa
Clouds: Clear
Visibility: 10 miles , 16 km
2018/10/18 10:15 KBVN 181015Z AUTO 00000KT 10SM CLR 08/03 A3039 RMK AO2 T00760030
 
KCBF - Council Bluffs, Iowa, USA
Distance from station: ENE 87mi, 139km
Updated: Thu, 18-Oct-2018 5:15am CDT
Clear
Clear
 Wind from SE
Wind: SE 7 mph , 11 km/h
Temperature: 41°F , 5°C
Wind Chill: 36°F , 2°C
Dew Point: 39°F , 4°C
Humidity: 93%
Barometer: 30.43 inHg , 1030.5 hPa
Clouds: Clear
Visibility: 10 miles , 16 km
2018/10/18 10:15 KCBF 181015Z AUTO 14006KT 10SM CLR 05/04 A3043 RMK AO2
KOFK - Norfolk, Nebraska, USA
Distance from station: N 92mi, 148km
Updated: Thu, 18-Oct-2018 4:56am CDT
Clear
Clear
 Wind from calm
Wind: Calm
Temperature: 43°F , 6°C
Dew Point: 37°F , 3°C
Humidity: 81%
Barometer: 30.38 inHg , 1028.8 hPa
Clouds: Clear
Visibility: 10 miles , 16 km
2018/10/18 09:56 KOFK 180956Z AUTO 00000KT 10SM CLR 06/03 A3038 RMK AO2 SLP288 T00560028

Metar display script from Saratoga-Weather.org